sensor_id;sensor_type;location;lat;lon;timestamp;P1;durP1;ratioP1;P2;durP2;ratioP2
39104;SDS011;46464;51.154;13.812;2023-06-26T00:00:02;6.43;;;5.53;;
39104;SDS011;46464;51.154;13.812;2023-06-26T00:02:30;7.57;;;6.57;;
39104;SDS011;46464;51.154;13.812;2023-06-26T00:04:59;10.40;;;6.10;;
39104;SDS011;46464;51.154;13.812;2023-06-26T00:07:29;9.25;;;5.95;;
39104;SDS011;46464;51.154;13.812;2023-06-26T00:09:57;7.50;;;6.75;;
39104;SDS011;46464;51.154;13.812;2023-06-26T00:12:24;7.68;;;6.50;;
39104;SDS011;46464;51.154;13.812;2023-06-26T00:14:51;7.40;;;6.28;;
39104;SDS011;46464;51.154;13.812;2023-06-26T00:19:45;7.47;;;6.43;;
39104;SDS011;46464;51.154;13.812;2023-06-26T00:22:11;8.20;;;6.47;;
39104;SDS011;46464;51.154;13.812;2023-06-26T00:24:38;7.05;;;6.35;;
39104;SDS011;46464;51.154;13.812;2023-06-26T00:27:04;6.70;;;6.00;;
39104;SDS011;46464;51.154;13.812;2023-06-26T00:29:31;7.57;;;6.72;;
39104;SDS011;46464;51.154;13.812;2023-06-26T00:31:58;7.82;;;6.20;;
39104;SDS011;46464;51.154;13.812;2023-06-26T00:34:24;9.73;;;6.90;;
39104;SDS011;46464;51.154;13.812;2023-06-26T00:36:51;6.28;;;5.68;;
39104;SDS011;46464;51.154;13.812;2023-06-26T00:44:10;8.27;;;6.03;;
39104;SDS011;46464;51.154;13.812;2023-06-26T00:46:37;9.40;;;6.20;;
39104;SDS011;46464;51.154;13.812;2023-06-26T00:51:31;11.02;;;6.78;;
39104;SDS011;46464;51.154;13.812;2023-06-26T01:01:17;7.15;;;6.45;;
39104;SDS011;46464;51.154;13.812;2023-06-26T01:06:12;10.35;;;7.00;;
39104;SDS011;46464;51.154;13.812;2023-06-26T01:08:41;9.20;;;6.88;;
39104;SDS011;46464;51.154;13.812;2023-06-26T01:11:08;7.97;;;6.10;;
39104;SDS011;46464;51.154;13.812;2023-06-26T01:13:35;7.13;;;5.85;;
39104;SDS011;46464;51.154;13.812;2023-06-26T01:16:02;11.57;;;7.07;;
39104;SDS011;46464;51.154;13.812;2023-06-26T01:18:30;8.27;;;6.40;;
39104;SDS011;46464;51.154;13.812;2023-06-26T01:24:54;8.20;;;6.47;;
39104;SDS011;46464;51.154;13.812;2023-06-26T01:27:30;7.88;;;6.68;;
39104;SDS011;46464;51.154;13.812;2023-06-26T01:30:02;8.45;;;6.45;;
39104;SDS011;46464;51.154;13.812;2023-06-26T01:32:31;7.43;;;6.43;;
39104;SDS011;46464;51.154;13.812;2023-06-26T01:34:59;7.50;;;6.40;;
39104;SDS011;46464;51.154;13.812;2023-06-26T01:37:26;8.70;;;6.07;;
39104;SDS011;46464;51.154;13.812;2023-06-26T01:39:52;8.60;;;6.68;;
39104;SDS011;46464;51.154;13.812;2023-06-26T01:42:18;9.13;;;6.90;;
39104;SDS011;46464;51.154;13.812;2023-06-26T01:44:45;6.97;;;5.90;;
39104;SDS011;46464;51.154;13.812;2023-06-26T01:47:14;9.88;;;7.50;;
39104;SDS011;46464;51.154;13.812;2023-06-26T01:49:47;7.93;;;6.60;;
39104;SDS011;46464;51.154;13.812;2023-06-26T01:52:20;7.55;;;6.80;;
39104;SDS011;46464;51.154;13.812;2023-06-26T01:57:36;7.72;;;6.47;;
39104;SDS011;46464;51.154;13.812;2023-06-26T02:00:05;9.20;;;7.05;;
39104;SDS011;46464;51.154;13.812;2023-06-26T02:02:36;9.63;;;7.15;;
39104;SDS011;46464;51.154;13.812;2023-06-26T02:05:03;7.60;;;6.50;;
39104;SDS011;46464;51.154;13.812;2023-06-26T02:07:30;10.07;;;6.95;;
39104;SDS011;46464;51.154;13.812;2023-06-26T02:09:56;9.13;;;6.15;;
39104;SDS011;46464;51.154;13.812;2023-06-26T02:12:23;9.93;;;6.80;;
39104;SDS011;46464;51.154;13.812;2023-06-26T02:14:49;8.55;;;6.22;;
39104;SDS011;46464;51.154;13.812;2023-06-26T02:17:17;7.35;;;6.60;;
39104;SDS011;46464;51.154;13.812;2023-06-26T02:19:44;8.55;;;6.53;;
39104;SDS011;46464;51.154;13.812;2023-06-26T02:22:14;8.02;;;6.18;;
39104;SDS011;46464;51.154;13.812;2023-06-26T02:24:41;7.78;;;6.88;;
39104;SDS011;46464;51.154;13.812;2023-06-26T02:27:11;9.50;;;6.75;;
39104;SDS011;46464;51.154;13.812;2023-06-26T02:29:38;8.68;;;6.72;;
39104;SDS011;46464;51.154;13.812;2023-06-26T02:32:05;7.07;;;6.38;;
39104;SDS011;46464;51.154;13.812;2023-06-26T02:34:32;9.70;;;6.65;;
39104;SDS011;46464;51.154;13.812;2023-06-26T02:39:26;10.60;;;6.70;;
39104;SDS011;46464;51.154;13.812;2023-06-26T02:46:53;7.38;;;5.82;;
39104;SDS011;46464;51.154;13.812;2023-06-26T02:49:20;9.23;;;6.57;;
39104;SDS011;46464;51.154;13.812;2023-06-26T02:51:48;7.57;;;6.70;;
39104;SDS011;46464;51.154;13.812;2023-06-26T02:54:15;10.00;;;6.85;;
39104;SDS011;46464;51.154;13.812;2023-06-26T02:56:41;8.50;;;7.35;;
39104;SDS011;46464;51.154;13.812;2023-06-26T02:59:13;9.57;;;7.70;;
39104;SDS011;46464;51.154;13.812;2023-06-26T03:11:26;13.95;;;6.18;;
39104;SDS011;46464;51.154;13.812;2023-06-26T03:13:52;12.32;;;6.45;;
39104;SDS011;46464;51.154;13.812;2023-06-26T03:16:19;9.80;;;7.00;;
39104;SDS011;46464;51.154;13.812;2023-06-26T03:18:46;9.95;;;6.35;;
39104;SDS011;46464;51.154;13.812;2023-06-26T03:21:12;11.38;;;7.07;;
39104;SDS011;46464;51.154;13.812;2023-06-26T03:23:39;11.27;;;6.88;;
39104;SDS011;46464;51.154;13.812;2023-06-26T03:26:05;9.77;;;7.07;;
39104;SDS011;46464;51.154;13.812;2023-06-26T03:28:32;11.10;;;6.72;;
39104;SDS011;46464;51.154;13.812;2023-06-26T03:30:58;8.30;;;6.82;;
39104;SDS011;46464;51.154;13.812;2023-06-26T03:33:25;9.00;;;6.53;;
39104;SDS011;46464;51.154;13.812;2023-06-26T03:35:52;9.50;;;7.03;;
39104;SDS011;46464;51.154;13.812;2023-06-26T03:40:51;8.30;;;6.63;;
39104;SDS011;46464;51.154;13.812;2023-06-26T03:43:18;7.82;;;6.57;;
39104;SDS011;46464;51.154;13.812;2023-06-26T03:45:44;7.03;;;6.32;;
39104;SDS011;46464;51.154;13.812;2023-06-26T03:48:12;8.63;;;6.47;;
39104;SDS011;46464;51.154;13.812;2023-06-26T03:50:39;9.18;;;6.35;;
39104;SDS011;46464;51.154;13.812;2023-06-26T03:53:06;11.48;;;7.15;;
39104;SDS011;46464;51.154;13.812;2023-06-26T03:55:32;8.00;;;6.35;;
39104;SDS011;46464;51.154;13.812;2023-06-26T03:58:00;10.23;;;6.78;;
39104;SDS011;46464;51.154;13.812;2023-06-26T04:00:27;8.32;;;6.20;;
39104;SDS011;46464;51.154;13.812;2023-06-26T04:02:54;11.07;;;6.90;;
39104;SDS011;46464;51.154;13.812;2023-06-26T04:05:20;14.02;;;7.57;;
39104;SDS011;46464;51.154;13.812;2023-06-26T04:07:50;10.60;;;7.32;;
39104;SDS011;46464;51.154;13.812;2023-06-26T04:10:17;13.15;;;7.45;;
39104;SDS011;46464;51.154;13.812;2023-06-26T04:17:37;8.55;;;6.40;;
39104;SDS011;46464;51.154;13.812;2023-06-26T04:20:04;10.52;;;8.10;;
39104;SDS011;46464;51.154;13.812;2023-06-26T04:22:35;10.82;;;7.63;;
39104;SDS011;46464;51.154;13.812;2023-06-26T04:25:02;11.07;;;8.38;;
39104;SDS011;46464;51.154;13.812;2023-06-26T04:27:29;10.65;;;7.63;;
39104;SDS011;46464;51.154;13.812;2023-06-26T04:30:02;10.35;;;8.40;;
39104;SDS011;46464;51.154;13.812;2023-06-26T04:32:29;9.98;;;8.27;;
39104;SDS011;46464;51.154;13.812;2023-06-26T04:34:55;8.13;;;7.32;;
39104;SDS011;46464;51.154;13.812;2023-06-26T04:37:22;8.77;;;7.85;;
39104;SDS011;46464;51.154;13.812;2023-06-26T04:39:49;11.63;;;7.70;;
39104;SDS011;46464;51.154;13.812;2023-06-26T04:45:29;8.85;;;7.93;;
39104;SDS011;46464;51.154;13.812;2023-06-26T04:47:56;8.98;;;7.40;;
39104;SDS011;46464;51.154;13.812;2023-06-26T04:50:23;9.20;;;7.28;;
39104;SDS011;46464;51.154;13.812;2023-06-26T04:52:49;9.63;;;7.68;;
39104;SDS011;46464;51.154;13.812;2023-06-26T04:55:16;9.93;;;7.55;;
39104;SDS011;46464;51.154;13.812;2023-06-26T04:57:42;10.05;;;7.80;;
39104;SDS011;46464;51.154;13.812;2023-06-26T05:00:09;11.52;;;8.32;;
39104;SDS011;46464;51.154;13.812;2023-06-26T05:02:37;9.75;;;7.10;;
39104;SDS011;46464;51.154;13.812;2023-06-26T05:05:03;10.77;;;7.72;;
39104;SDS011;46464;51.154;13.812;2023-06-26T05:07:30;8.40;;;7.38;;
39104;SDS011;46464;51.154;13.812;2023-06-26T05:09:57;9.90;;;7.40;;
39104;SDS011;46464;51.154;13.812;2023-06-26T05:12:23;9.05;;;7.75;;
39104;SDS011;46464;51.154;13.812;2023-06-26T05:14:50;10.90;;;7.70;;
39104;SDS011;46464;51.154;13.812;2023-06-26T05:17:16;8.98;;;7.85;;
39104;SDS011;46464;51.154;13.812;2023-06-26T05:19:43;8.13;;;7.18;;
39104;SDS011;46464;51.154;13.812;2023-06-26T05:22:09;9.95;;;6.60;;
39104;SDS011;46464;51.154;13.812;2023-06-26T05:24:38;8.55;;;7.43;;
39104;SDS011;46464;51.154;13.812;2023-06-26T05:27:05;9.85;;;6.63;;
39104;SDS011;46464;51.154;13.812;2023-06-26T05:29:32;7.63;;;6.07;;
39104;SDS011;46464;51.154;13.812;2023-06-26T05:32:04;10.98;;;5.50;;
39104;SDS011;46464;51.154;13.812;2023-06-26T05:34:31;8.32;;;5.35;;
39104;SDS011;46464;51.154;13.812;2023-06-26T05:36:59;5.03;;;4.53;;
39104;SDS011;46464;51.154;13.812;2023-06-26T05:39:27;6.50;;;4.90;;
39104;SDS011;46464;51.154;13.812;2023-06-26T05:41:55;9.18;;;4.88;;
39104;SDS011;46464;51.154;13.812;2023-06-26T05:44:22;5.35;;;4.60;;
39104;SDS011;46464;51.154;13.812;2023-06-26T05:46:49;7.32;;;4.60;;
39104;SDS011;46464;51.154;13.812;2023-06-26T05:49:15;4.40;;;4.00;;
39104;SDS011;46464;51.154;13.812;2023-06-26T05:54:08;7.05;;;4.50;;
39104;SDS011;46464;51.154;13.812;2023-06-26T05:56:35;5.30;;;4.13;;
39104;SDS011;46464;51.154;13.812;2023-06-26T05:59:02;6.35;;;4.25;;
39104;SDS011;46464;51.154;13.812;2023-06-26T06:01:32;4.80;;;3.83;;
39104;SDS011;46464;51.154;13.812;2023-06-26T06:03:59;5.15;;;4.07;;
39104;SDS011;46464;51.154;13.812;2023-06-26T06:06:26;5.32;;;3.97;;
39104;SDS011;46464;51.154;13.812;2023-06-26T06:08:53;4.38;;;3.88;;
39104;SDS011;46464;51.154;13.812;2023-06-26T06:13:46;5.57;;;4.10;;
39104;SDS011;46464;51.154;13.812;2023-06-26T06:18:39;5.47;;;3.90;;
39104;SDS011;46464;51.154;13.812;2023-06-26T06:21:05;6.40;;;3.50;;
39104;SDS011;46464;51.154;13.812;2023-06-26T06:25:58;5.32;;;3.83;;
39104;SDS011;46464;51.154;13.812;2023-06-26T06:28:25;4.85;;;3.78;;
39104;SDS011;46464;51.154;13.812;2023-06-26T06:33:18;4.43;;;3.85;;
39104;SDS011;46464;51.154;13.812;2023-06-26T06:35:45;4.25;;;3.53;;
39104;SDS011;46464;51.154;13.812;2023-06-26T06:38:12;4.13;;;3.72;;
39104;SDS011;46464;51.154;13.812;2023-06-26T06:40:38;4.55;;;3.75;;
39104;SDS011;46464;51.154;13.812;2023-06-26T06:43:05;4.65;;;3.40;;
39104;SDS011;46464;51.154;13.812;2023-06-26T06:45:32;4.43;;;3.92;;
39104;SDS011;46464;51.154;13.812;2023-06-26T06:47:58;8.50;;;3.88;;
39104;SDS011;46464;51.154;13.812;2023-06-26T06:50:25;6.13;;;3.72;;
39104;SDS011;46464;51.154;13.812;2023-06-26T06:52:51;4.18;;;3.70;;
39104;SDS011;46464;51.154;13.812;2023-06-26T06:55:18;5.85;;;3.92;;
39104;SDS011;46464;51.154;13.812;2023-06-26T06:57:44;4.88;;;3.70;;
39104;SDS011;46464;51.154;13.812;2023-06-26T07:00:11;5.00;;;3.47;;
39104;SDS011;46464;51.154;13.812;2023-06-26T07:02:41;4.38;;;3.80;;
39104;SDS011;46464;51.154;13.812;2023-06-26T07:05:10;4.15;;;3.60;;
39104;SDS011;46464;51.154;13.812;2023-06-26T07:07:37;5.90;;;3.78;;
39104;SDS011;46464;51.154;13.812;2023-06-26T07:10:05;4.32;;;3.92;;
39104;SDS011;46464;51.154;13.812;2023-06-26T07:12:34;4.68;;;3.45;;
39104;SDS011;46464;51.154;13.812;2023-06-26T07:15:01;5.75;;;3.83;;
39104;SDS011;46464;51.154;13.812;2023-06-26T07:17:31;5.55;;;3.88;;
39104;SDS011;46464;51.154;13.812;2023-06-26T07:19:59;4.93;;;3.75;;
39104;SDS011;46464;51.154;13.812;2023-06-26T07:22:26;5.90;;;4.40;;
39104;SDS011;46464;51.154;13.812;2023-06-26T07:24:52;4.72;;;4.03;;
39104;SDS011;46464;51.154;13.812;2023-06-26T07:27:19;6.57;;;3.78;;
39104;SDS011;46464;51.154;13.812;2023-06-26T07:29:46;6.68;;;3.92;;
39104;SDS011;46464;51.154;13.812;2023-06-26T07:32:13;4.20;;;3.80;;
39104;SDS011;46464;51.154;13.812;2023-06-26T07:34:41;7.50;;;4.18;;
39104;SDS011;46464;51.154;13.812;2023-06-26T07:39:59;4.75;;;3.97;;
39104;SDS011;46464;51.154;13.812;2023-06-26T07:42:25;5.85;;;4.30;;
39104;SDS011;46464;51.154;13.812;2023-06-26T07:44:52;4.88;;;3.83;;
39104;SDS011;46464;51.154;13.812;2023-06-26T07:47:19;4.82;;;4.30;;
39104;SDS011;46464;51.154;13.812;2023-06-26T07:49:45;6.13;;;3.90;;
39104;SDS011;46464;51.154;13.812;2023-06-26T07:52:12;6.25;;;3.90;;
39104;SDS011;46464;51.154;13.812;2023-06-26T07:54:38;4.57;;;3.60;;
39104;SDS011;46464;51.154;13.812;2023-06-26T07:57:05;4.78;;;4.10;;
39104;SDS011;46464;51.154;13.812;2023-06-26T07:59:35;5.55;;;4.70;;
39104;SDS011;46464;51.154;13.812;2023-06-26T08:02:02;6.05;;;4.47;;
39104;SDS011;46464;51.154;13.812;2023-06-26T08:04:29;4.80;;;3.75;;
39104;SDS011;46464;51.154;13.812;2023-06-26T08:06:58;7.13;;;4.30;;
39104;SDS011;46464;51.154;13.812;2023-06-26T08:09:26;5.50;;;4.20;;
39104;SDS011;46464;51.154;13.812;2023-06-26T08:11:54;5.05;;;3.72;;
39104;SDS011;46464;51.154;13.812;2023-06-26T08:14:21;4.82;;;4.03;;
39104;SDS011;46464;51.154;13.812;2023-06-26T08:16:48;6.55;;;4.22;;
39104;SDS011;46464;51.154;13.812;2023-06-26T08:19:15;4.38;;;3.90;;
39104;SDS011;46464;51.154;13.812;2023-06-26T08:21:43;4.95;;;3.85;;
39104;SDS011;46464;51.154;13.812;2023-06-26T08:24:11;4.40;;;3.95;;
39104;SDS011;46464;51.154;13.812;2023-06-26T08:26:39;5.07;;;4.22;;
39104;SDS011;46464;51.154;13.812;2023-06-26T08:29:06;4.82;;;4.22;;
39104;SDS011;46464;51.154;13.812;2023-06-26T08:31:38;6.38;;;3.90;;
39104;SDS011;46464;51.154;13.812;2023-06-26T08:34:06;5.75;;;4.50;;
39104;SDS011;46464;51.154;13.812;2023-06-26T08:36:34;4.53;;;3.65;;
39104;SDS011;46464;51.154;13.812;2023-06-26T08:39:01;4.95;;;4.28;;
39104;SDS011;46464;51.154;13.812;2023-06-26T08:41:29;5.50;;;4.10;;
39104;SDS011;46464;51.154;13.812;2023-06-26T08:43:56;5.03;;;4.53;;
39104;SDS011;46464;51.154;13.812;2023-06-26T08:46:22;4.30;;;3.85;;
39104;SDS011;46464;51.154;13.812;2023-06-26T08:48:57;6.25;;;4.10;;
39104;SDS011;46464;51.154;13.812;2023-06-26T08:51:28;5.97;;;4.30;;
39104;SDS011;46464;51.154;13.812;2023-06-26T08:54:00;7.07;;;4.30;;
39104;SDS011;46464;51.154;13.812;2023-06-26T08:56:32;5.97;;;4.60;;
39104;SDS011;46464;51.154;13.812;2023-06-26T09:01:31;6.53;;;4.35;;
39104;SDS011;46464;51.154;13.812;2023-06-26T09:03:58;4.72;;;4.22;;
39104;SDS011;46464;51.154;13.812;2023-06-26T09:06:25;4.70;;;4.20;;
39104;SDS011;46464;51.154;13.812;2023-06-26T09:08:51;4.90;;;4.13;;
39104;SDS011;46464;51.154;13.812;2023-06-26T09:11:18;7.20;;;4.57;;
39104;SDS011;46464;51.154;13.812;2023-06-26T09:13:45;5.20;;;4.70;;
39104;SDS011;46464;51.154;13.812;2023-06-26T09:16:14;6.50;;;4.53;;
39104;SDS011;46464;51.154;13.812;2023-06-26T09:18:40;4.95;;;4.40;;
39104;SDS011;46464;51.154;13.812;2023-06-26T09:21:10;5.13;;;4.28;;
39104;SDS011;46464;51.154;13.812;2023-06-26T09:23:39;5.72;;;4.30;;
39104;SDS011;46464;51.154;13.812;2023-06-26T09:26:21;5.85;;;4.47;;
39104;SDS011;46464;51.154;13.812;2023-06-26T09:28:57;5.15;;;4.43;;
39104;SDS011;46464;51.154;13.812;2023-06-26T09:34:08;5.00;;;4.40;;
39104;SDS011;46464;51.154;13.812;2023-06-26T09:36:41;5.47;;;4.18;;
39104;SDS011;46464;51.154;13.812;2023-06-26T09:39:19;4.90;;;4.28;;
39104;SDS011;46464;51.154;13.812;2023-06-26T09:41:50;5.40;;;4.65;;
39104;SDS011;46464;51.154;13.812;2023-06-26T09:44:24;5.03;;;4.45;;
39104;SDS011;46464;51.154;13.812;2023-06-26T09:46:54;5.20;;;4.28;;
39104;SDS011;46464;51.154;13.812;2023-06-26T09:49:29;6.50;;;4.00;;
39104;SDS011;46464;51.154;13.812;2023-06-26T09:52:00;6.30;;;4.20;;
39104;SDS011;46464;51.154;13.812;2023-06-26T09:54:39;5.15;;;4.47;;
39104;SDS011;46464;51.154;13.812;2023-06-26T09:57:55;7.85;;;4.65;;
39104;SDS011;46464;51.154;13.812;2023-06-26T10:00:33;5.10;;;4.53;;
39104;SDS011;46464;51.154;13.812;2023-06-26T10:03:21;4.45;;;4.05;;
39104;SDS011;46464;51.154;13.812;2023-06-26T10:05:53;5.63;;;4.22;;
39104;SDS011;46464;51.154;13.812;2023-06-26T10:08:29;5.85;;;4.35;;
39104;SDS011;46464;51.154;13.812;2023-06-26T10:11:01;5.72;;;4.85;;
39104;SDS011;46464;51.154;13.812;2023-06-26T10:13:43;5.67;;;4.43;;
39104;SDS011;46464;51.154;13.812;2023-06-26T10:16:44;4.38;;;3.97;;
39104;SDS011;46464;51.154;13.812;2023-06-26T10:19:24;5.18;;;4.65;;
39104;SDS011;46464;51.154;13.812;2023-06-26T10:22:05;5.03;;;3.90;;
39104;SDS011;46464;51.154;13.812;2023-06-26T10:24:42;6.47;;;4.40;;
39104;SDS011;46464;51.154;13.812;2023-06-26T10:27:29;6.32;;;4.55;;
39104;SDS011;46464;51.154;13.812;2023-06-26T10:30:09;5.55;;;4.05;;
39104;SDS011;46464;51.154;13.812;2023-06-26T10:32:39;6.35;;;4.43;;
39104;SDS011;46464;51.154;13.812;2023-06-26T10:35:26;4.90;;;4.40;;
39104;SDS011;46464;51.154;13.812;2023-06-26T10:38:03;5.05;;;4.45;;
39104;SDS011;46464;51.154;13.812;2023-06-26T10:53:10;5.35;;;4.55;;
39104;SDS011;46464;51.154;13.812;2023-06-26T10:55:59;7.22;;;3.90;;
39104;SDS011;46464;51.154;13.812;2023-06-26T10:58:50;4.88;;;4.22;;
39104;SDS011;46464;51.154;13.812;2023-06-26T11:01:44;5.00;;;4.20;;
39104;SDS011;46464;51.154;13.812;2023-06-26T11:07:45;5.38;;;4.32;;
39104;SDS011;46464;51.154;13.812;2023-06-26T11:10:54;5.55;;;3.92;;
39104;SDS011;46464;51.154;13.812;2023-06-26T11:13:31;6.45;;;4.40;;
39104;SDS011;46464;51.154;13.812;2023-06-26T11:18:39;4.20;;;3.80;;
39104;SDS011;46464;51.154;13.812;2023-06-26T11:21:24;5.10;;;4.10;;
39104;SDS011;46464;51.154;13.812;2023-06-26T11:24:00;5.43;;;4.70;;
39104;SDS011;46464;51.154;13.812;2023-06-26T11:26:44;5.13;;;4.22;;
39104;SDS011;46464;51.154;13.812;2023-06-26T11:29:23;4.68;;;4.15;;
39104;SDS011;46464;51.154;13.812;2023-06-26T11:32:05;5.60;;;3.92;;
39104;SDS011;46464;51.154;13.812;2023-06-26T11:34:43;4.70;;;4.20;;
39104;SDS011;46464;51.154;13.812;2023-06-26T11:37:17;5.45;;;3.88;;
39104;SDS011;46464;51.154;13.812;2023-06-26T11:39:52;4.68;;;4.07;;
39104;SDS011;46464;51.154;13.812;2023-06-26T11:42:34;6.68;;;4.03;;
39104;SDS011;46464;51.154;13.812;2023-06-26T11:45:13;4.90;;;4.25;;
39104;SDS011;46464;51.154;13.812;2023-06-26T11:48:22;4.90;;;3.83;;
39104;SDS011;46464;51.154;13.812;2023-06-26T11:51:05;5.75;;;4.07;;
39104;SDS011;46464;51.154;13.812;2023-06-26T11:53:39;6.32;;;4.03;;
39104;SDS011;46464;51.154;13.812;2023-06-26T11:56:17;5.38;;;4.30;;
39104;SDS011;46464;51.154;13.812;2023-06-26T11:59:06;4.07;;;3.67;;
39104;SDS011;46464;51.154;13.812;2023-06-26T12:01:44;5.13;;;4.20;;
39104;SDS011;46464;51.154;13.812;2023-06-26T12:04:17;4.57;;;4.07;;
39104;SDS011;46464;51.154;13.812;2023-06-26T12:06:53;4.68;;;4.00;;
39104;SDS011;46464;51.154;13.812;2023-06-26T12:09:37;4.40;;;3.90;;
39104;SDS011;46464;51.154;13.812;2023-06-26T12:12:19;5.50;;;3.75;;
39104;SDS011;46464;51.154;13.812;2023-06-26T12:14:53;4.90;;;3.95;;
39104;SDS011;46464;51.154;13.812;2023-06-26T12:17:23;6.03;;;3.50;;
39104;SDS011;46464;51.154;13.812;2023-06-26T12:20:27;5.55;;;3.70;;
39104;SDS011;46464;51.154;13.812;2023-06-26T12:23:03;4.00;;;3.58;;
39104;SDS011;46464;51.154;13.812;2023-06-26T12:25:38;4.25;;;3.85;;
39104;SDS011;46464;51.154;13.812;2023-06-26T12:28:43;4.28;;;3.45;;
39104;SDS011;46464;51.154;13.812;2023-06-26T12:31:13;5.35;;;3.65;;
39104;SDS011;46464;51.154;13.812;2023-06-26T12:33:46;6.97;;;3.67;;
39104;SDS011;46464;51.154;13.812;2023-06-26T12:36:39;4.50;;;3.97;;
39104;SDS011;46464;51.154;13.812;2023-06-26T12:39:17;4.53;;;3.55;;
39104;SDS011;46464;51.154;13.812;2023-06-26T12:41:56;4.13;;;3.72;;
39104;SDS011;46464;51.154;13.812;2023-06-26T12:44:47;4.00;;;3.50;;
39104;SDS011;46464;51.154;13.812;2023-06-26T12:47:28;4.00;;;3.60;;
39104;SDS011;46464;51.154;13.812;2023-06-26T12:50:23;4.28;;;3.55;;
39104;SDS011;46464;51.154;13.812;2023-06-26T12:52:53;5.30;;;3.78;;
39104;SDS011;46464;51.154;13.812;2023-06-26T12:55:20;6.40;;;4.05;;
39104;SDS011;46464;51.154;13.812;2023-06-26T12:57:57;4.28;;;3.88;;
39104;SDS011;46464;51.154;13.812;2023-06-26T13:00:29;4.15;;;3.75;;
39104;SDS011;46464;51.154;13.812;2023-06-26T13:03:03;4.28;;;3.88;;
39104;SDS011;46464;51.154;13.812;2023-06-26T13:05:40;4.43;;;4.00;;
39104;SDS011;46464;51.154;13.812;2023-06-26T13:08:21;5.30;;;4.18;;
39104;SDS011;46464;51.154;13.812;2023-06-26T13:10:50;4.65;;;3.88;;
39104;SDS011;46464;51.154;13.812;2023-06-26T13:13:22;5.07;;;3.83;;
39104;SDS011;46464;51.154;13.812;2023-06-26T13:15:57;4.75;;;3.90;;
39104;SDS011;46464;51.154;13.812;2023-06-26T13:18:31;6.32;;;4.10;;
39104;SDS011;46464;51.154;13.812;2023-06-26T13:21:01;4.32;;;3.80;;
39104;SDS011;46464;51.154;13.812;2023-06-26T13:23:34;4.65;;;4.10;;
39104;SDS011;46464;51.154;13.812;2023-06-26T13:26:06;4.47;;;3.97;;
39104;SDS011;46464;51.154;13.812;2023-06-26T13:28:36;4.50;;;3.90;;
39104;SDS011;46464;51.154;13.812;2023-06-26T13:31:10;4.70;;;4.07;;
39104;SDS011;46464;51.154;13.812;2023-06-26T13:33:43;5.65;;;4.10;;
39104;SDS011;46464;51.154;13.812;2023-06-26T13:36:18;5.30;;;4.22;;
39104;SDS011;46464;51.154;13.812;2023-06-26T13:38:51;5.18;;;3.85;;
39104;SDS011;46464;51.154;13.812;2023-06-26T13:41:33;4.22;;;3.83;;
39104;SDS011;46464;51.154;13.812;2023-06-26T13:44:04;6.82;;;4.40;;
39104;SDS011;46464;51.154;13.812;2023-06-26T13:46:50;6.05;;;3.90;;
39104;SDS011;46464;51.154;13.812;2023-06-26T13:49:26;5.25;;;4.45;;
39104;SDS011;46464;51.154;13.812;2023-06-26T13:52:15;4.63;;;3.95;;
39104;SDS011;46464;51.154;13.812;2023-06-26T13:54:47;4.93;;;4.03;;
39104;SDS011;46464;51.154;13.812;2023-06-26T13:57:20;5.25;;;3.90;;
39104;SDS011;46464;51.154;13.812;2023-06-26T13:59:54;4.70;;;3.70;;
39104;SDS011;46464;51.154;13.812;2023-06-26T14:02:20;4.68;;;3.90;;
39104;SDS011;46464;51.154;13.812;2023-06-26T14:04:51;3.97;;;3.58;;
39104;SDS011;46464;51.154;13.812;2023-06-26T14:07:26;4.65;;;4.22;;
39104;SDS011;46464;51.154;13.812;2023-06-26T14:10:01;4.95;;;3.67;;
39104;SDS011;46464;51.154;13.812;2023-06-26T14:15:27;6.85;;;3.58;;
39104;SDS011;46464;51.154;13.812;2023-06-26T14:17:59;4.30;;;3.90;;
39104;SDS011;46464;51.154;13.812;2023-06-26T14:20:31;6.30;;;3.97;;
39104;SDS011;46464;51.154;13.812;2023-06-26T14:22:59;4.20;;;3.80;;
39104;SDS011;46464;51.154;13.812;2023-06-26T14:25:34;5.03;;;4.20;;
39104;SDS011;46464;51.154;13.812;2023-06-26T14:28:02;6.55;;;4.22;;
39104;SDS011;46464;51.154;13.812;2023-06-26T14:30:32;5.13;;;4.07;;
39104;SDS011;46464;51.154;13.812;2023-06-26T14:33:05;5.22;;;3.90;;
39104;SDS011;46464;51.154;13.812;2023-06-26T14:35:38;4.55;;;4.07;;
39104;SDS011;46464;51.154;13.812;2023-06-26T14:38:19;4.15;;;3.72;;
39104;SDS011;46464;51.154;13.812;2023-06-26T14:41:01;5.22;;;3.90;;
39104;SDS011;46464;51.154;13.812;2023-06-26T14:43:32;5.45;;;4.10;;
39104;SDS011;46464;51.154;13.812;2023-06-26T14:46:34;5.40;;;3.90;;
39104;SDS011;46464;51.154;13.812;2023-06-26T14:49:09;5.07;;;4.57;;
39104;SDS011;46464;51.154;13.812;2023-06-26T14:51:46;4.85;;;4.20;;
39104;SDS011;46464;51.154;13.812;2023-06-26T14:54:24;7.57;;;4.28;;
39104;SDS011;46464;51.154;13.812;2023-06-26T14:56:55;6.25;;;4.47;;
39104;SDS011;46464;51.154;13.812;2023-06-26T14:59:35;4.75;;;3.83;;
39104;SDS011;46464;51.154;13.812;2023-06-26T15:02:13;7.07;;;3.95;;
39104;SDS011;46464;51.154;13.812;2023-06-26T15:04:54;7.50;;;4.40;;
39104;SDS011;46464;51.154;13.812;2023-06-26T15:07:23;5.30;;;4.75;;
39104;SDS011;46464;51.154;13.812;2023-06-26T15:10:00;5.47;;;4.40;;
39104;SDS011;46464;51.154;13.812;2023-06-26T15:12:35;4.90;;;4.40;;
39104;SDS011;46464;51.154;13.812;2023-06-26T15:15:11;5.82;;;4.47;;
39104;SDS011;46464;51.154;13.812;2023-06-26T15:17:39;5.18;;;4.68;;
39104;SDS011;46464;51.154;13.812;2023-06-26T15:20:21;6.82;;;4.20;;
39104;SDS011;46464;51.154;13.812;2023-06-26T15:22:55;5.53;;;4.50;;
39104;SDS011;46464;51.154;13.812;2023-06-26T15:25:26;5.30;;;4.47;;
39104;SDS011;46464;51.154;13.812;2023-06-26T15:28:17;7.13;;;5.07;;
39104;SDS011;46464;51.154;13.812;2023-06-26T15:30:50;7.10;;;5.18;;
39104;SDS011;46464;51.154;13.812;2023-06-26T15:33:21;4.93;;;4.25;;
39104;SDS011;46464;51.154;13.812;2023-06-26T15:36:04;7.28;;;4.65;;
39104;SDS011;46464;51.154;13.812;2023-06-26T15:38:41;4.97;;;4.47;;
39104;SDS011;46464;51.154;13.812;2023-06-26T15:41:15;6.03;;;4.40;;
39104;SDS011;46464;51.154;13.812;2023-06-26T15:43:50;5.78;;;5.05;;
39104;SDS011;46464;51.154;13.812;2023-06-26T15:46:25;5.35;;;4.78;;
39104;SDS011;46464;51.154;13.812;2023-06-26T15:48:57;5.85;;;4.90;;
39104;SDS011;46464;51.154;13.812;2023-06-26T15:51:26;5.50;;;4.93;;
39104;SDS011;46464;51.154;13.812;2023-06-26T15:53:53;7.00;;;4.38;;
39104;SDS011;46464;51.154;13.812;2023-06-26T15:56:23;6.50;;;4.97;;
39104;SDS011;46464;51.154;13.812;2023-06-26T15:58:52;5.90;;;5.30;;
39104;SDS011;46464;51.154;13.812;2023-06-26T16:01:23;5.45;;;4.80;;
39104;SDS011;46464;51.154;13.812;2023-06-26T16:03:58;5.38;;;4.85;;
39104;SDS011;46464;51.154;13.812;2023-06-26T16:06:35;6.10;;;4.97;;
39104;SDS011;46464;51.154;13.812;2023-06-26T16:09:10;18.67;;;5.45;;
39104;SDS011;46464;51.154;13.812;2023-06-26T16:11:50;13.77;;;5.60;;
39104;SDS011;46464;51.154;13.812;2023-06-26T16:14:20;40.75;;;7.85;;
39104;SDS011;46464;51.154;13.812;2023-06-26T16:16:52;34.05;;;6.53;;
39104;SDS011;46464;51.154;13.812;2023-06-26T16:19:32;26.67;;;6.35;;
39104;SDS011;46464;51.154;13.812;2023-06-26T16:22:27;24.02;;;6.50;;
39104;SDS011;46464;51.154;13.812;2023-06-26T16:24:54;24.08;;;7.38;;
39104;SDS011;46464;51.154;13.812;2023-06-26T16:27:26;14.25;;;6.68;;
39104;SDS011;46464;51.154;13.812;2023-06-26T16:41:25;8.77;;;7.85;;
39104;SDS011;46464;51.154;13.812;2023-06-26T16:44:01;12.80;;;8.27;;
39104;SDS011;46464;51.154;13.812;2023-06-26T16:46:40;16.15;;;8.65;;